sensor_id;sensor_type;location;lat;lon;timestamp;P1;durP1;ratioP1;P2;durP2;ratioP2
80565;SDS011;69915;54.862;10.730;2023-11-21T00:02:25;3.35;;;2.83;;
80565;SDS011;69915;54.862;10.730;2023-11-21T00:04:50;4.78;;;3.80;;
80565;SDS011;69915;54.862;10.730;2023-11-21T00:07:16;4.57;;;3.40;;
80565;SDS011;69915;54.862;10.730;2023-11-21T00:09:42;7.40;;;3.03;;
80565;SDS011;69915;54.862;10.730;2023-11-21T00:12:07;5.57;;;3.95;;
80565;SDS011;69915;54.862;10.730;2023-11-21T00:14:36;5.97;;;3.25;;
80565;SDS011;69915;54.862;10.730;2023-11-21T00:17:03;3.45;;;2.85;;
80565;SDS011;69915;54.862;10.730;2023-11-21T00:19:30;5.03;;;2.88;;
80565;SDS011;69915;54.862;10.730;2023-11-21T00:21:56;3.65;;;3.03;;
80565;SDS011;69915;54.862;10.730;2023-11-21T00:24:23;4.50;;;3.17;;
80565;SDS011;69915;54.862;10.730;2023-11-21T00:26:50;8.68;;;2.72;;
80565;SDS011;69915;54.862;10.730;2023-11-21T00:29:16;3.95;;;3.08;;
80565;SDS011;69915;54.862;10.730;2023-11-21T00:31:42;5.30;;;4.20;;
80565;SDS011;69915;54.862;10.730;2023-11-21T00:34:09;4.90;;;3.90;;
80565;SDS011;69915;54.862;10.730;2023-11-21T00:36:34;3.35;;;2.90;;
80565;SDS011;69915;54.862;10.730;2023-11-21T00:39:00;4.30;;;2.85;;
80565;SDS011;69915;54.862;10.730;2023-11-21T00:41:25;7.55;;;3.60;;
80565;SDS011;69915;54.862;10.730;2023-11-21T00:43:54;4.20;;;3.15;;
80565;SDS011;69915;54.862;10.730;2023-11-21T00:46:20;4.93;;;3.47;;
80565;SDS011;69915;54.862;10.730;2023-11-21T00:48:46;3.92;;;3.28;;
80565;SDS011;69915;54.862;10.730;2023-11-21T00:51:11;3.10;;;2.80;;
80565;SDS011;69915;54.862;10.730;2023-11-21T00:53:37;15.13;;;2.80;;
80565;SDS011;69915;54.862;10.730;2023-11-21T00:56:02;4.65;;;3.63;;
80565;SDS011;69915;54.862;10.730;2023-11-21T00:58:28;3.45;;;2.70;;
80565;SDS011;69915;54.862;10.730;2023-11-21T01:00:53;3.08;;;2.55;;
80565;SDS011;69915;54.862;10.730;2023-11-21T01:03:19;2.88;;;1.92;;
80565;SDS011;69915;54.862;10.730;2023-11-21T01:05:45;3.88;;;3.13;;
80565;SDS011;69915;54.862;10.730;2023-11-21T01:08:11;3.78;;;3.38;;
80565;SDS011;69915;54.862;10.730;2023-11-21T01:10:37;3.72;;;2.83;;
80565;SDS011;69915;54.862;10.730;2023-11-21T01:13:02;2.85;;;2.30;;
80565;SDS011;69915;54.862;10.730;2023-11-21T01:15:30;3.40;;;2.50;;
80565;SDS011;69915;54.862;10.730;2023-11-21T01:17:55;4.75;;;2.72;;
80565;SDS011;69915;54.862;10.730;2023-11-21T01:20:21;3.40;;;2.38;;
80565;SDS011;69915;54.862;10.730;2023-11-21T01:22:46;3.20;;;2.65;;
80565;SDS011;69915;54.862;10.730;2023-11-21T01:25:14;3.47;;;2.35;;
80565;SDS011;69915;54.862;10.730;2023-11-21T01:27:41;2.90;;;2.30;;
80565;SDS011;69915;54.862;10.730;2023-11-21T01:30:08;4.28;;;2.50;;
80565;SDS011;69915;54.862;10.730;2023-11-21T01:32:35;4.28;;;3.88;;
80565;SDS011;69915;54.862;10.730;2023-11-21T01:35:02;4.00;;;2.60;;
80565;SDS011;69915;54.862;10.730;2023-11-21T01:37:30;3.85;;;2.60;;
80565;SDS011;69915;54.862;10.730;2023-11-21T01:39:56;3.67;;;2.60;;
80565;SDS011;69915;54.862;10.730;2023-11-21T01:42:21;3.95;;;2.63;;
80565;SDS011;69915;54.862;10.730;2023-11-21T01:44:47;4.88;;;2.70;;
80565;SDS011;69915;54.862;10.730;2023-11-21T01:47:12;3.38;;;2.40;;
80565;SDS011;69915;54.862;10.730;2023-11-21T01:49:39;5.88;;;2.92;;
80565;SDS011;69915;54.862;10.730;2023-11-21T01:52:04;3.15;;;2.15;;
80565;SDS011;69915;54.862;10.730;2023-11-21T01:54:31;2.20;;;1.90;;
80565;SDS011;69915;54.862;10.730;2023-11-21T01:56:58;2.72;;;2.45;;
80565;SDS011;69915;54.862;10.730;2023-11-21T02:01:57;1.85;;;1.60;;
80565;SDS011;69915;54.862;10.730;2023-11-21T02:04:22;3.22;;;2.05;;
80565;SDS011;69915;54.862;10.730;2023-11-21T02:06:48;2.17;;;1.63;;
80565;SDS011;69915;54.862;10.730;2023-11-21T02:09:15;2.35;;;1.92;;
80565;SDS011;69915;54.862;10.730;2023-11-21T02:11:42;3.00;;;1.98;;
80565;SDS011;69915;54.862;10.730;2023-11-21T02:14:09;2.60;;;1.65;;
80565;SDS011;69915;54.862;10.730;2023-11-21T02:16:35;2.63;;;1.88;;
80565;SDS011;69915;54.862;10.730;2023-11-21T02:19:02;3.22;;;2.10;;
80565;SDS011;69915;54.862;10.730;2023-11-21T02:21:34;3.05;;;2.55;;
80565;SDS011;69915;54.862;10.730;2023-11-21T02:24:01;6.10;;;2.17;;
80565;SDS011;69915;54.862;10.730;2023-11-21T02:26:26;4.10;;;1.65;;
80565;SDS011;69915;54.862;10.730;2023-11-21T02:28:52;2.95;;;2.05;;
80565;SDS011;69915;54.862;10.730;2023-11-21T02:31:18;1.80;;;1.42;;
80565;SDS011;69915;54.862;10.730;2023-11-21T02:33:44;3.15;;;2.00;;
80565;SDS011;69915;54.862;10.730;2023-11-21T02:36:09;3.40;;;1.73;;
80565;SDS011;69915;54.862;10.730;2023-11-21T02:38:35;3.22;;;1.73;;
80565;SDS011;69915;54.862;10.730;2023-11-21T02:41:00;5.47;;;2.10;;
80565;SDS011;69915;54.862;10.730;2023-11-21T02:43:25;3.90;;;1.85;;
80565;SDS011;69915;54.862;10.730;2023-11-21T02:45:51;2.45;;;1.77;;
80565;SDS011;69915;54.862;10.730;2023-11-21T02:48:16;4.90;;;2.72;;
80565;SDS011;69915;54.862;10.730;2023-11-21T02:50:42;3.83;;;1.98;;
80565;SDS011;69915;54.862;10.730;2023-11-21T02:53:08;4.07;;;2.28;;
80565;SDS011;69915;54.862;10.730;2023-11-21T02:55:35;2.63;;;1.95;;
80565;SDS011;69915;54.862;10.730;2023-11-21T02:58:01;3.15;;;1.95;;
80565;SDS011;69915;54.862;10.730;2023-11-21T03:00:28;2.00;;;1.60;;
80565;SDS011;69915;54.862;10.730;2023-11-21T03:02:55;2.95;;;1.45;;
80565;SDS011;69915;54.862;10.730;2023-11-21T03:05:21;3.83;;;2.17;;
80565;SDS011;69915;54.862;10.730;2023-11-21T03:07:46;3.35;;;1.98;;
80565;SDS011;69915;54.862;10.730;2023-11-21T03:10:12;3.10;;;2.40;;
80565;SDS011;69915;54.862;10.730;2023-11-21T03:12:38;2.67;;;2.25;;
80565;SDS011;69915;54.862;10.730;2023-11-21T03:15:07;3.85;;;2.42;;
80565;SDS011;69915;54.862;10.730;2023-11-21T03:17:36;2.90;;;1.92;;
80565;SDS011;69915;54.862;10.730;2023-11-21T03:20:02;2.90;;;2.13;;
80565;SDS011;69915;54.862;10.730;2023-11-21T03:22:28;3.67;;;2.10;;
80565;SDS011;69915;54.862;10.730;2023-11-21T03:24:54;3.05;;;2.00;;
80565;SDS011;69915;54.862;10.730;2023-11-21T03:27:19;4.75;;;2.13;;
80565;SDS011;69915;54.862;10.730;2023-11-21T03:29:45;2.22;;;2.03;;
80565;SDS011;69915;54.862;10.730;2023-11-21T03:32:12;2.63;;;2.17;;
80565;SDS011;69915;54.862;10.730;2023-11-21T03:34:52;2.88;;;2.13;;
80565;SDS011;69915;54.862;10.730;2023-11-21T03:37:20;2.95;;;1.77;;
80565;SDS011;69915;54.862;10.730;2023-11-21T03:39:45;2.17;;;1.70;;
80565;SDS011;69915;54.862;10.730;2023-11-21T03:42:14;3.38;;;2.67;;
80565;SDS011;69915;54.862;10.730;2023-11-21T03:44:39;3.78;;;2.35;;
80565;SDS011;69915;54.862;10.730;2023-11-21T03:47:04;3.58;;;2.28;;
80565;SDS011;69915;54.862;10.730;2023-11-21T03:49:30;2.75;;;1.92;;
80565;SDS011;69915;54.862;10.730;2023-11-21T03:51:56;3.17;;;1.33;;
80565;SDS011;69915;54.862;10.730;2023-11-21T03:54:21;2.35;;;2.15;;
80565;SDS011;69915;54.862;10.730;2023-11-21T03:56:47;3.15;;;1.95;;
80565;SDS011;69915;54.862;10.730;2023-11-21T03:59:12;3.03;;;2.40;;
80565;SDS011;69915;54.862;10.730;2023-11-21T04:01:37;3.45;;;3.03;;
80565;SDS011;69915;54.862;10.730;2023-11-21T04:04:03;4.63;;;2.80;;
80565;SDS011;69915;54.862;10.730;2023-11-21T04:06:29;5.25;;;3.40;;
80565;SDS011;69915;54.862;10.730;2023-11-21T04:08:54;3.20;;;2.20;;
80565;SDS011;69915;54.862;10.730;2023-11-21T04:11:20;4.18;;;2.65;;
80565;SDS011;69915;54.862;10.730;2023-11-21T04:13:45;3.83;;;2.75;;
80565;SDS011;69915;54.862;10.730;2023-11-21T04:16:12;4.93;;;2.40;;
80565;SDS011;69915;54.862;10.730;2023-11-21T04:18:38;2.90;;;2.42;;
80565;SDS011;69915;54.862;10.730;2023-11-21T04:21:07;4.10;;;2.20;;
80565;SDS011;69915;54.862;10.730;2023-11-21T04:23:33;5.45;;;2.83;;
80565;SDS011;69915;54.862;10.730;2023-11-21T04:26:00;3.53;;;2.75;;
80565;SDS011;69915;54.862;10.730;2023-11-21T04:28:27;3.40;;;2.00;;
80565;SDS011;69915;54.862;10.730;2023-11-21T04:30:53;4.47;;;3.03;;
80565;SDS011;69915;54.862;10.730;2023-11-21T04:33:18;2.63;;;2.38;;
80565;SDS011;69915;54.862;10.730;2023-11-21T04:35:44;3.97;;;3.10;;
80565;SDS011;69915;54.862;10.730;2023-11-21T04:38:09;6.50;;;2.92;;
80565;SDS011;69915;54.862;10.730;2023-11-21T04:40:34;8.90;;;3.53;;
80565;SDS011;69915;54.862;10.730;2023-11-21T04:43:00;4.32;;;3.53;;
80565;SDS011;69915;54.862;10.730;2023-11-21T04:45:26;3.65;;;2.90;;
80565;SDS011;69915;54.862;10.730;2023-11-21T04:47:52;4.25;;;2.95;;
80565;SDS011;69915;54.862;10.730;2023-11-21T04:50:17;4.45;;;3.65;;
80565;SDS011;69915;54.862;10.730;2023-11-21T04:52:44;4.47;;;3.20;;
80565;SDS011;69915;54.862;10.730;2023-11-21T04:55:09;2.78;;;2.08;;
80565;SDS011;69915;54.862;10.730;2023-11-21T04:57:35;4.40;;;3.38;;
80565;SDS011;69915;54.862;10.730;2023-11-21T05:00:01;9.38;;;3.15;;
80565;SDS011;69915;54.862;10.730;2023-11-21T05:02:30;4.25;;;3.08;;
80565;SDS011;69915;54.862;10.730;2023-11-21T05:04:56;5.07;;;2.47;;
80565;SDS011;69915;54.862;10.730;2023-11-21T05:07:22;5.43;;;3.10;;
80565;SDS011;69915;54.862;10.730;2023-11-21T05:09:47;4.60;;;3.40;;
80565;SDS011;69915;54.862;10.730;2023-11-21T05:12:13;4.53;;;2.38;;
80565;SDS011;69915;54.862;10.730;2023-11-21T05:14:39;7.70;;;3.47;;
80565;SDS011;69915;54.862;10.730;2023-11-21T05:17:05;4.07;;;2.88;;
80565;SDS011;69915;54.862;10.730;2023-11-21T05:19:30;6.35;;;3.30;;
80565;SDS011;69915;54.862;10.730;2023-11-21T05:21:57;3.65;;;2.58;;
80565;SDS011;69915;54.862;10.730;2023-11-21T05:24:24;4.13;;;3.05;;
80565;SDS011;69915;54.862;10.730;2023-11-21T05:26:49;3.78;;;3.22;;
80565;SDS011;69915;54.862;10.730;2023-11-21T05:29:14;3.55;;;3.15;;
80565;SDS011;69915;54.862;10.730;2023-11-21T05:31:40;4.57;;;2.55;;
80565;SDS011;69915;54.862;10.730;2023-11-21T05:34:05;2.53;;;1.95;;
80565;SDS011;69915;54.862;10.730;2023-11-21T05:36:31;4.85;;;2.65;;
80565;SDS011;69915;54.862;10.730;2023-11-21T05:38:56;4.88;;;2.45;;
80565;SDS011;69915;54.862;10.730;2023-11-21T05:41:22;2.72;;;2.08;;
80565;SDS011;69915;54.862;10.730;2023-11-21T05:43:48;3.45;;;2.40;;
80565;SDS011;69915;54.862;10.730;2023-11-21T05:46:14;4.60;;;2.88;;
80565;SDS011;69915;54.862;10.730;2023-11-21T05:48:39;2.55;;;2.35;;
80565;SDS011;69915;54.862;10.730;2023-11-21T05:51:05;4.70;;;3.00;;
80565;SDS011;69915;54.862;10.730;2023-11-21T05:53:31;3.20;;;2.03;;
80565;SDS011;69915;54.862;10.730;2023-11-21T05:55:56;6.85;;;3.70;;
80565;SDS011;69915;54.862;10.730;2023-11-21T05:58:22;4.03;;;2.65;;
80565;SDS011;69915;54.862;10.730;2023-11-21T06:00:48;3.30;;;2.15;;
80565;SDS011;69915;54.862;10.730;2023-11-21T06:03:13;3.15;;;1.88;;
80565;SDS011;69915;54.862;10.730;2023-11-21T06:05:39;4.45;;;2.22;;
80565;SDS011;69915;54.862;10.730;2023-11-21T06:08:04;20.02;;;2.88;;
80565;SDS011;69915;54.862;10.730;2023-11-21T06:10:29;2.88;;;2.10;;
80565;SDS011;69915;54.862;10.730;2023-11-21T06:12:55;3.15;;;2.28;;
80565;SDS011;69915;54.862;10.730;2023-11-21T06:15:20;7.82;;;2.75;;
80565;SDS011;69915;54.862;10.730;2023-11-21T06:17:48;6.43;;;3.50;;
80565;SDS011;69915;54.862;10.730;2023-11-21T06:20:17;3.70;;;2.63;;
80565;SDS011;69915;54.862;10.730;2023-11-21T06:22:44;3.80;;;2.10;;
80565;SDS011;69915;54.862;10.730;2023-11-21T06:25:11;3.67;;;2.55;;
80565;SDS011;69915;54.862;10.730;2023-11-21T06:27:42;4.03;;;3.33;;
80565;SDS011;69915;54.862;10.730;2023-11-21T06:30:13;3.72;;;3.22;;
80565;SDS011;69915;54.862;10.730;2023-11-21T06:32:40;5.35;;;3.35;;
80565;SDS011;69915;54.862;10.730;2023-11-21T06:35:06;4.05;;;3.08;;
80565;SDS011;69915;54.862;10.730;2023-11-21T06:37:33;3.75;;;3.22;;
80565;SDS011;69915;54.862;10.730;2023-11-21T06:39:59;5.43;;;3.28;;
80565;SDS011;69915;54.862;10.730;2023-11-21T06:42:25;3.42;;;2.90;;
80565;SDS011;69915;54.862;10.730;2023-11-21T06:44:51;3.95;;;2.78;;
80565;SDS011;69915;54.862;10.730;2023-11-21T06:47:18;3.63;;;3.03;;
80565;SDS011;69915;54.862;10.730;2023-11-21T06:49:45;4.25;;;3.20;;
80565;SDS011;69915;54.862;10.730;2023-11-21T06:52:13;3.25;;;1.90;;
80565;SDS011;69915;54.862;10.730;2023-11-21T06:54:38;5.80;;;3.25;;
80565;SDS011;69915;54.862;10.730;2023-11-21T06:57:04;4.40;;;2.55;;
80565;SDS011;69915;54.862;10.730;2023-11-21T06:59:29;4.70;;;3.08;;
80565;SDS011;69915;54.862;10.730;2023-11-21T07:01:54;4.30;;;2.85;;
80565;SDS011;69915;54.862;10.730;2023-11-21T07:04:20;8.18;;;4.07;;
80565;SDS011;69915;54.862;10.730;2023-11-21T07:06:45;6.55;;;3.50;;
80565;SDS011;69915;54.862;10.730;2023-11-21T07:09:11;4.95;;;2.47;;
80565;SDS011;69915;54.862;10.730;2023-11-21T07:11:37;5.20;;;2.90;;
80565;SDS011;69915;54.862;10.730;2023-11-21T07:14:05;6.32;;;3.78;;
80565;SDS011;69915;54.862;10.730;2023-11-21T07:16:36;4.47;;;2.70;;
80565;SDS011;69915;54.862;10.730;2023-11-21T07:19:06;7.47;;;2.83;;
80565;SDS011;69915;54.862;10.730;2023-11-21T07:21:32;4.30;;;3.15;;
80565;SDS011;69915;54.862;10.730;2023-11-21T07:23:59;5.30;;;2.92;;
80565;SDS011;69915;54.862;10.730;2023-11-21T07:26:28;2.78;;;2.22;;
80565;SDS011;69915;54.862;10.730;2023-11-21T07:28:54;6.43;;;3.55;;
80565;SDS011;69915;54.862;10.730;2023-11-21T07:31:21;5.32;;;3.63;;
80565;SDS011;69915;54.862;10.730;2023-11-21T07:33:49;8.85;;;4.43;;
80565;SDS011;69915;54.862;10.730;2023-11-21T07:36:21;4.55;;;3.80;;
80565;SDS011;69915;54.862;10.730;2023-11-21T07:38:47;9.65;;;3.78;;
80565;SDS011;69915;54.862;10.730;2023-11-21T07:41:13;3.65;;;3.00;;
80565;SDS011;69915;54.862;10.730;2023-11-21T07:43:43;4.43;;;2.67;;
80565;SDS011;69915;54.862;10.730;2023-11-21T07:46:09;6.13;;;2.80;;
80565;SDS011;69915;54.862;10.730;2023-11-21T07:48:37;5.03;;;3.22;;
80565;SDS011;69915;54.862;10.730;2023-11-21T07:51:03;6.95;;;4.10;;
80565;SDS011;69915;54.862;10.730;2023-11-21T07:53:29;6.70;;;3.55;;
80565;SDS011;69915;54.862;10.730;2023-11-21T07:55:58;2.78;;;2.10;;
80565;SDS011;69915;54.862;10.730;2023-11-21T07:58:27;5.68;;;2.97;;
80565;SDS011;69915;54.862;10.730;2023-11-21T08:00:53;5.25;;;4.45;;
80565;SDS011;69915;54.862;10.730;2023-11-21T08:03:19;5.35;;;2.80;;
80565;SDS011;69915;54.862;10.730;2023-11-21T08:05:44;3.78;;;2.85;;
80565;SDS011;69915;54.862;10.730;2023-11-21T08:08:10;6.10;;;2.53;;
80565;SDS011;69915;54.862;10.730;2023-11-21T08:10:36;5.30;;;3.30;;
80565;SDS011;69915;54.862;10.730;2023-11-21T08:13:02;5.35;;;3.17;;
80565;SDS011;69915;54.862;10.730;2023-11-21T08:15:29;4.88;;;3.55;;
80565;SDS011;69915;54.862;10.730;2023-11-21T08:17:56;5.10;;;3.20;;
80565;SDS011;69915;54.862;10.730;2023-11-21T08:20:22;4.28;;;2.80;;
80565;SDS011;69915;54.862;10.730;2023-11-21T08:22:47;3.60;;;2.47;;
80565;SDS011;69915;54.862;10.730;2023-11-21T08:25:13;3.63;;;2.47;;
80565;SDS011;69915;54.862;10.730;2023-11-21T08:27:39;6.35;;;4.28;;
80565;SDS011;69915;54.862;10.730;2023-11-21T08:30:05;6.28;;;4.60;;
80565;SDS011;69915;54.862;10.730;2023-11-21T08:32:32;6.00;;;2.85;;
80565;SDS011;69915;54.862;10.730;2023-11-21T08:35:01;4.70;;;2.65;;
80565;SDS011;69915;54.862;10.730;2023-11-21T08:37:26;4.15;;;2.83;;
80565;SDS011;69915;54.862;10.730;2023-11-21T08:39:52;7.13;;;3.95;;
80565;SDS011;69915;54.862;10.730;2023-11-21T08:42:18;6.25;;;3.53;;
80565;SDS011;69915;54.862;10.730;2023-11-21T08:44:44;6.45;;;3.05;;
80565;SDS011;69915;54.862;10.730;2023-11-21T08:47:10;4.53;;;3.33;;
80565;SDS011;69915;54.862;10.730;2023-11-21T08:49:36;4.18;;;3.38;;
80565;SDS011;69915;54.862;10.730;2023-11-21T08:52:03;4.80;;;2.78;;
80565;SDS011;69915;54.862;10.730;2023-11-21T08:54:30;2.75;;;1.83;;
80565;SDS011;69915;54.862;10.730;2023-11-21T08:56:56;5.95;;;3.53;;
80565;SDS011;69915;54.862;10.730;2023-11-21T08:59:24;5.15;;;3.63;;
80565;SDS011;69915;54.862;10.730;2023-11-21T09:01:50;4.90;;;2.78;;
80565;SDS011;69915;54.862;10.730;2023-11-21T09:04:15;5.32;;;3.28;;
80565;SDS011;69915;54.862;10.730;2023-11-21T09:06:41;4.90;;;2.53;;
80565;SDS011;69915;54.862;10.730;2023-11-21T09:09:06;2.05;;;1.65;;
80565;SDS011;69915;54.862;10.730;2023-11-21T09:11:33;4.25;;;2.92;;
80565;SDS011;69915;54.862;10.730;2023-11-21T09:14:02;3.53;;;2.03;;
80565;SDS011;69915;54.862;10.730;2023-11-21T09:16:28;3.47;;;2.35;;
80565;SDS011;69915;54.862;10.730;2023-11-21T09:18:54;2.63;;;1.73;;
80565;SDS011;69915;54.862;10.730;2023-11-21T09:21:19;4.65;;;2.83;;
80565;SDS011;69915;54.862;10.730;2023-11-21T09:23:45;2.90;;;2.38;;
80565;SDS011;69915;54.862;10.730;2023-11-21T09:26:11;4.90;;;2.22;;
80565;SDS011;69915;54.862;10.730;2023-11-21T09:28:36;5.25;;;3.03;;
80565;SDS011;69915;54.862;10.730;2023-11-21T09:31:07;4.18;;;2.03;;
80565;SDS011;69915;54.862;10.730;2023-11-21T09:33:34;5.40;;;2.60;;
80565;SDS011;69915;54.862;10.730;2023-11-21T09:36:00;5.13;;;3.28;;
80565;SDS011;69915;54.862;10.730;2023-11-21T09:38:26;3.88;;;2.67;;
80565;SDS011;69915;54.862;10.730;2023-11-21T09:40:54;7.85;;;2.63;;
80565;SDS011;69915;54.862;10.730;2023-11-21T09:43:20;5.07;;;2.53;;
80565;SDS011;69915;54.862;10.730;2023-11-21T09:45:47;4.50;;;2.22;;
80565;SDS011;69915;54.862;10.730;2023-11-21T09:48:19;7.10;;;2.72;;
80565;SDS011;69915;54.862;10.730;2023-11-21T09:50:45;2.95;;;2.03;;
80565;SDS011;69915;54.862;10.730;2023-11-21T09:53:19;5.50;;;2.80;;
80565;SDS011;69915;54.862;10.730;2023-11-21T09:55:47;3.85;;;2.30;;
80565;SDS011;69915;54.862;10.730;2023-11-21T09:58:16;2.88;;;2.13;;
80565;SDS011;69915;54.862;10.730;2023-11-21T10:00:43;2.17;;;1.75;;
80565;SDS011;69915;54.862;10.730;2023-11-21T10:03:11;4.68;;;3.17;;
80565;SDS011;69915;54.862;10.730;2023-11-21T10:05:38;4.63;;;2.97;;
80565;SDS011;69915;54.862;10.730;2023-11-21T10:08:07;2.97;;;2.00;;
80565;SDS011;69915;54.862;10.730;2023-11-21T10:10:35;5.05;;;3.35;;
80565;SDS011;69915;54.862;10.730;2023-11-21T10:13:02;8.18;;;4.15;;
80565;SDS011;69915;54.862;10.730;2023-11-21T10:15:32;3.92;;;3.00;;
80565;SDS011;69915;54.862;10.730;2023-11-21T10:18:00;6.43;;;3.83;;
80565;SDS011;69915;54.862;10.730;2023-11-21T10:20:31;3.45;;;2.55;;
80565;SDS011;69915;54.862;10.730;2023-11-21T10:22:59;5.00;;;2.88;;
80565;SDS011;69915;54.862;10.730;2023-11-21T10:25:28;5.40;;;2.53;;
80565;SDS011;69915;54.862;10.730;2023-11-21T10:27:59;4.13;;;2.70;;
80565;SDS011;69915;54.862;10.730;2023-11-21T10:30:36;3.83;;;2.70;;
80565;SDS011;69915;54.862;10.730;2023-11-21T10:33:03;5.88;;;3.42;;
80565;SDS011;69915;54.862;10.730;2023-11-21T10:35:43;3.65;;;2.42;;
80565;SDS011;69915;54.862;10.730;2023-11-21T10:38:12;4.40;;;3.25;;
80565;SDS011;69915;54.862;10.730;2023-11-21T10:40:39;3.88;;;2.55;;
80565;SDS011;69915;54.862;10.730;2023-11-21T10:43:06;4.72;;;2.17;;
80565;SDS011;69915;54.862;10.730;2023-11-21T10:45:34;9.00;;;5.45;;
80565;SDS011;69915;54.862;10.730;2023-11-21T10:48:04;3.38;;;2.03;;
80565;SDS011;69915;54.862;10.730;2023-11-21T10:50:32;3.85;;;2.30;;
80565;SDS011;69915;54.862;10.730;2023-11-21T10:53:00;3.05;;;2.00;;
80565;SDS011;69915;54.862;10.730;2023-11-21T10:55:29;5.03;;;2.38;;
80565;SDS011;69915;54.862;10.730;2023-11-21T10:57:57;8.70;;;3.28;;
80565;SDS011;69915;54.862;10.730;2023-11-21T11:00:27;5.25;;;2.13;;
80565;SDS011;69915;54.862;10.730;2023-11-21T11:02:54;3.60;;;1.75;;
80565;SDS011;69915;54.862;10.730;2023-11-21T11:05:21;4.85;;;2.72;;
80565;SDS011;69915;54.862;10.730;2023-11-21T11:07:51;3.25;;;2.80;;
80565;SDS011;69915;54.862;10.730;2023-11-21T11:10:25;4.30;;;2.20;;
80565;SDS011;69915;54.862;10.730;2023-11-21T11:12:52;4.10;;;2.22;;
80565;SDS011;69915;54.862;10.730;2023-11-21T11:15:22;3.22;;;1.73;;
80565;SDS011;69915;54.862;10.730;2023-11-21T11:17:49;3.15;;;1.95;;
80565;SDS011;69915;54.862;10.730;2023-11-21T11:20:15;4.45;;;2.60;;
80565;SDS011;69915;54.862;10.730;2023-11-21T11:22:57;3.90;;;2.63;;
80565;SDS011;69915;54.862;10.730;2023-11-21T11:28:46;4.80;;;3.05;;
80565;SDS011;69915;54.862;10.730;2023-11-21T11:37:07;9.48;;;2.58;;
80565;SDS011;69915;54.862;10.730;2023-11-21T11:42:03;5.18;;;2.08;;
80565;SDS011;69915;54.862;10.730;2023-11-21T11:47:21;5.85;;;2.72;;
80565;SDS011;69915;54.862;10.730;2023-11-21T11:55:05;4.28;;;1.88;;
80565;SDS011;69915;54.862;10.730;2023-11-21T11:57:35;7.10;;;2.55;;
80565;SDS011;69915;54.862;10.730;2023-11-21T12:02:49;6.13;;;2.25;;
80565;SDS011;69915;54.862;10.730;2023-11-21T12:05:20;2.53;;;2.03;;
80565;SDS011;69915;54.862;10.730;2023-11-21T12:07:51;3.72;;;2.05;;
80565;SDS011;69915;54.862;10.730;2023-11-21T12:10:19;5.65;;;3.15;;
80565;SDS011;69915;54.862;10.730;2023-11-21T12:15:20;3.05;;;1.77;;
80565;SDS011;69915;54.862;10.730;2023-11-21T12:17:46;3.13;;;2.20;;
80565;SDS011;69915;54.862;10.730;2023-11-21T13:58:25;5.22;;;1.83;;
80565;SDS011;69915;54.862;10.730;2023-11-21T14:01:08;4.90;;;1.55;;
80565;SDS011;69915;54.862;10.730;2023-11-21T14:05:04;5.22;;;1.70;;
80565;SDS011;69915;54.862;10.730;2023-11-21T14:07:34;4.10;;;1.55;;
80565;SDS011;69915;54.862;10.730;2023-11-21T14:10:03;6.32;;;1.30;;
80565;SDS011;69915;54.862;10.730;2023-11-21T14:12:30;5.60;;;1.58;;
80565;SDS011;69915;54.862;10.730;2023-11-21T14:14:59;3.60;;;1.40;;
80565;SDS011;69915;54.862;10.730;2023-11-21T14:17:25;3.67;;;1.58;;
80565;SDS011;69915;54.862;10.730;2023-11-21T14:19:52;3.20;;;1.40;;
80565;SDS011;69915;54.862;10.730;2023-11-21T14:22:20;2.92;;;1.25;;
80565;SDS011;69915;54.862;10.730;2023-11-21T14:24:46;5.40;;;1.77;;
80565;SDS011;69915;54.862;10.730;2023-11-21T14:27:12;3.22;;;1.35;;
80565;SDS011;69915;54.862;10.730;2023-11-21T16:12:41;0.52;;;0.30;;
80565;SDS011;69915;54.862;10.730;2023-11-21T16:15:07;1.67;;;0.50;;
80565;SDS011;69915;54.862;10.730;2023-11-21T16:17:36;1.83;;;0.82;;
80565;SDS011;69915;54.862;10.730;2023-11-21T16:20:03;2.25;;;1.08;;
80565;SDS011;69915;54.862;10.730;2023-11-21T16:22:41;2.00;;;0.73;;
80565;SDS011;69915;54.862;10.730;2023-11-21T16:25:07;4.20;;;0.90;;
80565;SDS011;69915;54.862;10.730;2023-11-21T16:27:38;1.60;;;0.95;;
80565;SDS011;69915;54.862;10.730;2023-11-21T16:30:04;1.70;;;0.82;;
80565;SDS011;69915;54.862;10.730;2023-11-21T16:32:30;2.00;;;0.90;;
80565;SDS011;69915;54.862;10.730;2023-11-21T16:34:57;2.08;;;0.82;;
80565;SDS011;69915;54.862;10.730;2023-11-21T16:37:24;2.25;;;1.00;;
80565;SDS011;69915;54.862;10.730;2023-11-21T16:39:50;1.48;;;0.43;;
80565;SDS011;69915;54.862;10.730;2023-11-21T16:42:16;2.70;;;0.98;;
80565;SDS011;69915;54.862;10.730;2023-11-21T16:44:42;1.55;;;0.80;;
80565;SDS011;69915;54.862;10.730;2023-11-21T16:47:08;3.22;;;0.98;;
80565;SDS011;69915;54.862;10.730;2023-11-21T16:49:34;2.80;;;0.80;;
80565;SDS011;69915;54.862;10.730;2023-11-21T16:52:02;1.73;;;0.77;;
80565;SDS011;69915;54.862;10.730;2023-11-21T16:54:28;0.47;;;0.22;;
80565;SDS011;69915;54.862;10.730;2023-11-21T16:56:54;0.45;;;0.28;;
80565;SDS011;69915;54.862;10.730;2023-11-21T16:59:19;2.00;;;0.77;;
80565;SDS011;69915;54.862;10.730;2023-11-21T17:01:48;0.85;;;0.52;;
80565;SDS011;69915;54.862;10.730;2023-11-21T17:04:14;5.13;;;0.82;;
80565;SDS011;69915;54.862;10.730;2023-11-21T17:06:47;1.83;;;0.70;;
80565;SDS011;69915;54.862;10.730;2023-11-21T17:09:13;1.73;;;0.68;;
80565;SDS011;69915;54.862;10.730;2023-11-21T17:11:43;1.35;;;0.40;;
80565;SDS011;69915;54.862;10.730;2023-11-21T17:14:12;5.40;;;2.92;;
80565;SDS011;69915;54.862;10.730;2023-11-21T17:16:38;1.50;;;0.75;;
80565;SDS011;69915;54.862;10.730;2023-11-21T17:19:05;1.17;;;0.60;;
80565;SDS011;69915;54.862;10.730;2023-11-21T17:21:31;1.45;;;0.70;;
80565;SDS011;69915;54.862;10.730;2023-11-21T17:23:57;1.58;;;0.75;;
80565;SDS011;69915;54.862;10.730;2023-11-21T17:26:23;1.45;;;0.90;;
80565;SDS011;69915;54.862;10.730;2023-11-21T17:28:49;1.38;;;0.73;;
80565;SDS011;69915;54.862;10.730;2023-11-21T17:31:15;1.60;;;0.57;;
80565;SDS011;69915;54.862;10.730;2023-11-21T17:33:42;5.10;;;1.33;;
80565;SDS011;69915;54.862;10.730;2023-11-21T17:36:08;1.58;;;0.52;;
80565;SDS011;69915;54.862;10.730;2023-11-21T17:38:37;0.95;;;0.50;;
80565;SDS011;69915;54.862;10.730;2023-11-21T17:41:03;1.83;;;0.60;;
80565;SDS011;69915;54.862;10.730;2023-11-21T17:43:28;2.80;;;0.65;;
80565;SDS011;69915;54.862;10.730;2023-11-21T17:45:54;1.88;;;0.90;;
80565;SDS011;69915;54.862;10.730;2023-11-21T17:48:19;1.40;;;0.77;;
80565;SDS011;69915;54.862;10.730;2023-11-21T17:50:46;1.38;;;0.88;;
80565;SDS011;69915;54.862;10.730;2023-11-21T17:53:11;2.20;;;1.20;;
80565;SDS011;69915;54.862;10.730;2023-11-21T17:55:37;2.00;;;0.57;;
80565;SDS011;69915;54.862;10.730;2023-11-21T17:58:02;1.63;;;0.93;;
80565;SDS011;69915;54.862;10.730;2023-11-21T18:00:27;3.05;;;1.00;;
80565;SDS011;69915;54.862;10.730;2023-11-21T18:02:53;1.30;;;0.80;;
80565;SDS011;69915;54.862;10.730;2023-11-21T18:05:18;1.67;;;0.90;;
80565;SDS011;69915;54.862;10.730;2023-11-21T18:07:46;3.28;;;1.73;;
80565;SDS011;69915;54.862;10.730;2023-11-21T18:10:12;3.10;;;0.82;;
80565;SDS011;69915;54.862;10.730;2023-11-21T18:12:38;1.02;;;0.45;;
80565;SDS011;69915;54.862;10.730;2023-11-21T18:15:03;9.38;;;1.00;;
80565;SDS011;69915;54.862;10.730;2023-11-21T18:17:29;1.77;;;0.80;;
80565;SDS011;69915;54.862;10.730;2023-11-21T18:19:55;2.75;;;1.00;;
80565;SDS011;69915;54.862;10.730;2023-11-21T18:22:21;2.75;;;0.77;;